createdAt,value
2019-05-09T00:01:38.175Z,97567.03
2019-05-09T00:04:07.654Z,97570.19
2019-05-09T00:06:37.129Z,97569.89
2019-05-09T00:09:07.431Z,97577.37
2019-05-09T00:11:37.242Z,97574.80
2019-05-09T00:14:07.049Z,97580.08
2019-05-09T00:16:36.792Z,97577.70
2019-05-09T00:19:06.681Z,97570.40
2019-05-09T00:21:38.130Z,97570.31
2019-05-09T00:24:07.610Z,97579.05
2019-05-09T00:26:37.337Z,97577.40
2019-05-09T00:29:17.498Z,97580.14
2019-05-09T00:31:53.981Z,97580.75
2019-05-09T00:34:24.798Z,97571.86
2019-05-09T00:36:54.611Z,97569.17
2019-05-09T00:39:24.090Z,97565.81
2019-05-09T00:41:54.139Z,97565.14
2019-05-09T00:44:25.255Z,97558.25
2019-05-09T00:47:13.505Z,97562.50
2019-05-09T00:49:43.562Z,97561.77
2019-05-09T00:52:14.139Z,97560.48
2019-05-09T00:54:43.867Z,97556.04
2019-05-09T00:57:15.005Z,97556.39
2019-05-09T00:59:44.824Z,97551.38
2019-05-09T01:02:14.636Z,97556.66
2019-05-09T01:04:44.391Z,97556.19
2019-05-09T01:07:14.156Z,97551.41
2019-05-09T01:09:44.026Z,97551.16
2019-05-09T01:12:14.380Z,97546.63
2019-05-09T01:14:44.022Z,97542.69
2019-05-09T01:17:13.769Z,97547.45
2019-05-09T01:19:43.518Z,97540.36
2019-05-09T01:22:13.349Z,97534.52
2019-05-09T01:24:44.305Z,97536.59
2019-05-09T01:27:14.285Z,97542.31
2019-05-09T01:29:44.223Z,97549.20
2019-05-09T01:32:15.331Z,97547.52
2019-05-09T01:34:44.810Z,97547.52
2019-05-09T01:37:14.278Z,97536.84
2019-05-09T01:39:44.125Z,97541.63
2019-05-09T01:42:13.882Z,97541.55
2019-05-09T01:44:44.043Z,97551.74
2019-05-09T01:47:14.234Z,97562.43
2019-05-09T01:49:43.746Z,97561.97
2019-05-09T01:52:13.823Z,97563.65
2019-05-09T01:54:45.015Z,97550.52
2019-05-09T01:57:14.504Z,97547.73
2019-05-09T01:59:44.446Z,97555.48
2019-05-09T02:02:14.317Z,97549.38
2019-05-09T02:04:44.038Z,97540.92
2019-05-09T02:07:13.543Z,97535.38
2019-05-09T02:09:43.503Z,97526.85
2019-05-09T02:12:14.148Z,97529.33
2019-05-09T02:14:48.484Z,97533.13
2019-05-09T02:17:34.895Z,97535.09
2019-05-09T02:20:04.797Z,97525.77
2019-05-09T02:22:35.126Z,97530.97
2019-05-09T02:25:10.830Z,97530.25
2019-05-09T02:27:40.684Z,97533.40
2019-05-09T02:30:15.205Z,97529.98
2019-05-09T02:32:45.254Z,97539.97
2019-05-09T02:35:15.185Z,97532.67
2019-05-09T02:37:44.661Z,97528.34
2019-05-09T02:40:14.556Z,97530.56
2019-05-09T02:42:44.037Z,97531.94
2019-05-09T02:45:13.952Z,97528.52
2019-05-09T02:47:43.442Z,97525.20
2019-05-09T02:50:13.613Z,97526.50
2019-05-09T02:52:43.103Z,97524.31
2019-05-09T02:55:12.717Z,97526.73
2019-05-09T02:57:42.566Z,97530.81
2019-05-09T03:00:28.833Z,97527.23
2019-05-09T03:03:02.869Z,97537.52
2019-05-09T03:05:32.639Z,97530.81
2019-05-09T03:08:02.119Z,97526.66
2019-05-09T03:10:31.655Z,97522.41
2019-05-09T03:13:01.203Z,97521.23
2019-05-09T03:15:30.671Z,97515.47
2019-05-09T03:18:00.253Z,97514.73
2019-05-09T03:20:31.336Z,97526.40
2019-05-09T03:23:00.820Z,97517.32
2019-05-09T03:25:30.727Z,97514.45
2019-05-09T03:27:59.980Z,97522.62
2019-05-09T03:30:39.584Z,97521.47
2019-05-09T03:33:10.244Z,97522.97
2019-05-09T03:35:38.910Z,97527.61
2019-05-09T03:38:08.619Z,97516.12
2019-05-09T03:40:39.110Z,97516.65
2019-05-09T03:43:08.589Z,97518.70
2019-05-09T03:45:48.599Z,97521.97
2019-05-09T03:48:28.167Z,97517.77
2019-05-09T03:50:57.721Z,97513.73
2019-05-09T03:53:27.661Z,97516.52
2019-05-09T03:55:59.085Z,97513.06
2019-05-09T03:58:28.556Z,97513.33
2019-05-09T04:00:58.390Z,97511.03
2019-05-09T04:03:27.872Z,97509.56
2019-05-09T04:06:02.541Z,97506.72
2019-05-09T04:08:29.161Z,97502.47
2019-05-09T04:10:58.972Z,97509.20
2019-05-09T04:13:30.086Z,97504.70
2019-05-09T04:15:59.727Z,97508.86
2019-05-09T04:18:29.529Z,97511.80
2019-05-09T04:20:58.991Z,97521.57
2019-05-09T04:23:28.471Z,97517.16
2019-05-09T04:25:59.578Z,97524.80
2019-05-09T04:28:29.055Z,97518.99
2019-05-09T04:30:59.093Z,97517.05
2019-05-09T04:33:28.577Z,97514.38
2019-05-09T04:35:58.413Z,97513.19
2019-05-09T04:38:28.224Z,97502.57
2019-05-09T04:40:58.509Z,97505.89
2019-05-09T04:43:35.472Z,97508.66
2019-05-09T04:46:01.844Z,97505.34
2019-05-09T04:48:32.370Z,97511.80
2019-05-09T04:51:07.586Z,97506.83
2019-05-09T04:53:37.654Z,97507.83
2019-05-09T04:56:18.222Z,97507.27
2019-05-09T04:58:48.282Z,97504.92
2019-05-09T05:01:20.375Z,97500.52
2019-05-09T05:03:51.725Z,97498.47
2019-05-09T05:06:21.196Z,97500.59
2019-05-09T05:08:50.679Z,97501.41
2019-05-09T05:11:20.149Z,97503.14
2019-05-09T05:13:50.168Z,97498.38
2019-05-09T05:16:19.683Z,97492.91
2019-05-09T05:18:49.186Z,97498.67
2019-05-09T05:21:20.454Z,97496.06
2019-05-09T05:23:49.918Z,97497.32
2019-05-09T05:26:21.530Z,97498.47
2019-05-09T05:28:51.007Z,97495.36
2019-05-09T05:31:20.483Z,97493.02
2019-05-09T05:33:53.933Z,97485.46
2019-05-09T05:36:24.198Z,97484.47
2019-05-09T05:38:53.837Z,97492.39
2019-05-09T05:41:23.323Z,97485.88
2019-05-09T05:43:52.805Z,97492.67
2019-05-09T05:46:30.521Z,97495.20
2019-05-09T05:48:59.992Z,97494.42
2019-05-09T05:51:31.120Z,97493.75
2019-05-09T05:54:01.529Z,97495.45
2019-05-09T05:56:31.250Z,97494.31
2019-05-09T05:59:01.009Z,97485.92
2019-05-09T06:01:30.485Z,97488.18
2019-05-09T06:04:00.320Z,97487.28
2019-05-09T06:06:32.944Z,97486.30
2019-05-09T06:09:01.406Z,97483.79
2019-05-09T06:11:30.940Z,97485.70
2019-05-09T06:14:08.791Z,97481.73
2019-05-09T06:16:31.623Z,97474.77
2019-05-09T06:19:02.066Z,97477.25
2019-05-09T06:21:31.603Z,97480.14
2019-05-09T06:24:01.101Z,97471.93
2019-05-09T06:26:30.589Z,97478.78
2019-05-09T06:29:00.152Z,97478.66
2019-05-09T06:31:29.644Z,97481.52
2019-05-09T06:33:59.117Z,97479.77
2019-05-09T06:36:28.642Z,97480.16
2019-05-09T06:38:58.925Z,97480.50
2019-05-09T06:41:28.806Z,97485.94
2019-05-09T06:44:16.375Z,97484.30
2019-05-09T06:46:42.064Z,97489.74
2019-05-09T06:49:24.809Z,97499.30
2019-05-09T06:51:47.509Z,97491.91
2019-05-09T06:54:17.506Z,97491.07
2019-05-09T06:56:47.582Z,97480.68
2019-05-09T06:59:19.068Z,97476.45
2019-05-09T07:01:58.845Z,97479.77
2019-05-09T07:04:30.300Z,97475.99
2019-05-09T07:07:01.756Z,97474.95
2019-05-09T07:09:33.205Z,97474.58
2019-05-09T07:12:03.225Z,97473.77
2019-05-09T07:14:38.265Z,97461.15
2019-05-09T07:17:07.802Z,97458.12
2019-05-09T07:19:38.336Z,97457.56
2019-05-09T07:22:21.550Z,97457.00
2019-05-09T07:25:00.863Z,97457.16
2019-05-09T07:27:29.355Z,97447.02
2019-05-09T07:30:02.940Z,97446.06
2019-05-09T07:32:34.050Z,97439.92
2019-05-09T07:35:08.636Z,97429.91
2019-05-09T07:37:37.955Z,97426.02
2019-05-09T07:40:08.627Z,97423.09
2019-05-09T07:42:39.119Z,97423.31
2019-05-09T07:45:09.070Z,97422.59
2019-05-09T07:47:38.975Z,97424.95
2019-05-09T07:50:09.082Z,97418.59
2019-05-09T07:52:38.973Z,97410.56
2019-05-09T07:55:09.145Z,97406.42
2019-05-09T07:57:46.484Z,97409.63
2019-05-09T08:00:10.994Z,97402.28
2019-05-09T08:02:40.493Z,97409.39
2019-05-09T08:05:13.127Z,97401.44
2019-05-09T08:07:42.946Z,97406.29
2019-05-09T08:10:12.557Z,97407.45
2019-05-09T08:12:42.044Z,97400.90
2019-05-09T08:15:16.498Z,97403.78
2019-05-09T08:17:42.865Z,97407.33
2019-05-09T08:20:13.889Z,97407.59
2019-05-09T08:22:50.639Z,97411.23
2019-05-09T08:25:14.897Z,97412.98
2019-05-09T08:27:44.387Z,97419.72
2019-05-09T08:30:14.154Z,97419.09
2019-05-09T08:32:43.634Z,97429.80
2019-05-09T08:35:13.193Z,97436.28
2019-05-09T08:37:42.680Z,97438.19
2019-05-09T08:40:12.604Z,97450.64
2019-05-09T08:42:42.087Z,97452.20
2019-05-09T08:45:24.536Z,97471.80
2019-05-09T08:47:42.981Z,97471.47
2019-05-09T08:50:14.193Z,97477.75
2019-05-09T08:52:43.667Z,97473.52
2019-05-09T08:55:13.223Z,97479.77
2019-05-09T08:57:42.698Z,97475.28
2019-05-09T09:00:13.113Z,97483.81
2019-05-09T09:02:42.587Z,97486.28
2019-05-09T09:05:14.094Z,97488.53
2019-05-09T09:07:43.801Z,97487.22
2019-05-09T09:10:13.426Z,97490.18
2019-05-09T09:12:42.895Z,97486.97
2019-05-09T09:15:12.486Z,97488.30
2019-05-09T09:17:42.186Z,97500.31
2019-05-09T09:20:12.031Z,97488.41
2019-05-09T09:22:41.501Z,97495.36
2019-05-09T09:25:11.318Z,97499.02
2019-05-09T09:27:40.805Z,97490.28
2019-05-09T09:30:20.212Z,97477.78
2019-05-09T09:32:42.446Z,97476.50
2019-05-09T09:35:12.036Z,97478.27
2019-05-09T09:37:48.446Z,97476.73
2019-05-09T09:40:13.311Z,97473.77
2019-05-09T09:42:42.756Z,97464.69
2019-05-09T09:45:12.364Z,97468.00
2019-05-09T09:47:41.801Z,97460.70
2019-05-09T09:50:11.396Z,97457.16
2019-05-09T09:52:41.195Z,97449.38
2019-05-09T09:55:10.870Z,97442.77
2019-05-09T09:57:40.554Z,97442.87
2019-05-09T10:00:19.021Z,97447.94
2019-05-09T10:02:48.727Z,97447.07
2019-05-09T10:05:18.498Z,97433.95
2019-05-09T10:07:47.994Z,97433.70
2019-05-09T10:10:35.801Z,97423.42
2019-05-09T10:13:10.534Z,97418.19
2019-05-09T10:15:47.477Z,97412.00
2019-05-09T10:18:18.296Z,97405.66
2019-05-09T10:21:07.438Z,97403.69
2019-05-09T10:23:37.842Z,97408.54
2019-05-09T10:26:08.496Z,97408.00
2019-05-09T10:28:38.330Z,97396.44
2019-05-09T10:31:08.416Z,97395.84
2019-05-09T10:33:37.914Z,97390.38
2019-05-09T10:36:08.435Z,97397.32
2019-05-09T10:38:38.824Z,97394.45
2019-05-09T10:41:11.387Z,97384.45
2019-05-09T10:43:50.271Z,97386.47
2019-05-09T10:46:47.655Z,97380.70
2019-05-09T10:49:03.342Z,97372.63
2019-05-09T10:51:32.787Z,97368.02
2019-05-09T10:54:02.245Z,97362.59
2019-05-09T10:56:31.977Z,97376.39
2019-05-09T10:59:01.690Z,97373.78
2019-05-09T11:01:31.133Z,97368.77
2019-05-09T11:04:00.904Z,97370.77
2019-05-09T11:06:30.352Z,97392.70
2019-05-09T11:08:59.797Z,97364.44
2019-05-09T11:11:29.506Z,97375.23
2019-05-09T11:13:59.231Z,97360.96
2019-05-09T11:16:42.035Z,97363.63
2019-05-09T11:19:00.194Z,97355.30
2019-05-09T11:21:29.993Z,97352.78
2019-05-09T11:23:59.512Z,97350.76
2019-05-09T11:26:29.094Z,97354.95
2019-05-09T11:28:59.021Z,97355.53
2019-05-09T11:31:29.606Z,97379.54
2019-05-09T11:33:59.765Z,97370.77
2019-05-09T11:36:29.446Z,97367.61
2019-05-09T11:39:00.632Z,97359.80
2019-05-09T11:41:30.473Z,97365.81
2019-05-09T11:44:00.343Z,97361.43
2019-05-09T11:46:29.785Z,97370.77
2019-05-09T11:48:59.905Z,97371.91
2019-05-09T11:51:29.630Z,97367.45
2019-05-09T11:53:59.062Z,97371.18
2019-05-09T11:56:28.778Z,97379.14
2019-05-09T11:58:58.244Z,97381.32
2019-05-09T12:01:29.186Z,97396.00
2019-05-09T12:03:58.922Z,97395.33
2019-05-09T12:06:29.235Z,97392.77
2019-05-09T12:08:59.161Z,97425.16
2019-05-09T12:11:28.850Z,97408.87
2019-05-09T12:13:58.436Z,97422.50
2019-05-09T12:16:28.190Z,97428.45
2019-05-09T12:18:58.663Z,97430.89
2019-05-09T12:21:28.839Z,97426.29
2019-05-09T12:23:58.838Z,97425.53
2019-05-09T12:26:29.281Z,97421.81
2019-05-09T12:28:59.000Z,97412.30
2019-05-09T12:31:29.239Z,97417.03
2019-05-09T12:33:59.524Z,97415.34
2019-05-09T12:36:29.343Z,97409.27
2019-05-09T12:38:59.547Z,97408.19
2019-05-09T12:41:31.654Z,97411.56
2019-05-09T12:44:00.537Z,97415.69
2019-05-09T12:46:29.975Z,97398.86
2019-05-09T12:48:59.578Z,97393.33
2019-05-09T12:51:29.357Z,97402.80
2019-05-09T12:53:58.808Z,97404.11
2019-05-09T12:56:28.728Z,97391.09
2019-05-09T12:58:58.676Z,97396.41
2019-05-09T13:01:28.383Z,97387.34
2019-05-09T13:03:58.450Z,97399.20
2019-05-09T13:06:29.607Z,97390.50
2019-05-09T13:08:59.124Z,97394.05
2019-05-09T13:11:28.555Z,97393.53
2019-05-09T13:13:58.369Z,97399.30
2019-05-09T13:16:43.949Z,97407.53
2019-05-09T13:19:07.373Z,97406.78
2019-05-09T13:21:38.915Z,97399.99
2019-05-09T13:24:08.657Z,97402.66
2019-05-09T13:26:38.929Z,97400.32
2019-05-09T13:29:08.573Z,97405.48
2019-05-09T13:31:39.689Z,97414.92
2019-05-09T13:34:09.658Z,97404.73
2019-05-09T13:36:39.363Z,97412.05
2019-05-09T13:39:10.792Z,97403.91
2019-05-09T13:41:42.403Z,97410.84
2019-05-09T13:44:13.900Z,97409.81
2019-05-09T13:46:43.191Z,97404.55
2019-05-09T13:49:15.558Z,97415.58
2019-05-09T13:51:51.229Z,97418.23
2019-05-09T13:54:17.852Z,97443.94
2019-05-09T13:56:52.138Z,97452.12
2019-05-09T13:59:18.732Z,97462.72
2019-05-09T14:01:48.544Z,97464.33
2019-05-09T14:04:18.062Z,97478.08
2019-05-09T14:06:48.735Z,97470.11
2019-05-09T14:09:19.881Z,97486.42
2019-05-09T14:11:49.661Z,97474.41
2019-05-09T14:14:19.476Z,97475.43
2019-05-09T14:16:48.894Z,97471.43
2019-05-09T14:19:36.086Z,97471.80
2019-05-09T14:21:49.542Z,97480.84
2019-05-09T14:24:19.511Z,97479.30
2019-05-09T14:26:49.324Z,97479.77
2019-05-09T14:29:20.485Z,97481.41
2019-05-09T14:31:50.276Z,97489.58
2019-05-09T14:34:20.077Z,97499.48
2019-05-09T14:36:49.833Z,97489.48
2019-05-09T14:39:19.254Z,97489.61
2019-05-09T14:41:48.779Z,97489.71
2019-05-09T14:44:18.509Z,97501.73
2019-05-09T14:46:48.381Z,97493.53
2019-05-09T14:49:17.934Z,97493.53
2019-05-09T14:51:49.976Z,97500.34
2019-05-09T14:54:19.202Z,97503.30
2019-05-09T14:56:49.538Z,97498.47
2019-05-09T14:59:19.253Z,97500.00
2019-05-09T15:01:49.573Z,97501.34
2019-05-09T15:04:19.264Z,97506.91
2019-05-09T15:06:48.999Z,97522.30
2019-05-09T15:09:18.528Z,97525.86
2019-05-09T15:11:48.646Z,97537.70
2019-05-09T15:14:18.497Z,97531.66
2019-05-09T15:16:48.745Z,97527.42
2019-05-09T15:19:18.578Z,97528.78
2019-05-09T15:21:48.881Z,97531.91
2019-05-09T15:24:19.486Z,97531.07
2019-05-09T15:26:50.018Z,97536.56
2019-05-09T15:29:19.571Z,97534.73
2019-05-09T15:31:54.163Z,97537.47
2019-05-09T15:34:21.646Z,97546.26
2019-05-09T15:36:51.092Z,97543.92
2019-05-09T15:39:20.810Z,97546.77
2019-05-09T15:41:50.252Z,97541.31
2019-05-09T15:44:19.940Z,97551.35
2019-05-09T15:46:51.080Z,97564.03
2019-05-09T15:49:20.774Z,97557.33
2019-05-09T15:51:50.472Z,97568.17
2019-05-09T15:54:20.216Z,97554.32
2019-05-09T15:56:49.664Z,97559.69
2019-05-09T15:59:19.418Z,97559.89
2019-05-09T16:01:49.339Z,97562.01
2019-05-09T16:04:19.126Z,97574.08
2019-05-09T16:06:50.551Z,97564.41
2019-05-09T16:09:20.086Z,97560.28
2019-05-09T16:11:49.801Z,97582.52
2019-05-09T16:14:19.237Z,97573.94
2019-05-09T16:16:49.005Z,97570.89
2019-05-09T16:19:18.444Z,97564.89
2019-05-09T16:21:48.222Z,97588.16
2019-05-09T16:24:18.714Z,97580.14
2019-05-09T16:26:48.927Z,97586.05
2019-05-09T16:29:18.651Z,97586.15
2019-05-09T16:31:48.478Z,97599.06
2019-05-09T16:34:18.305Z,97602.09
2019-05-09T16:36:48.091Z,97614.06
2019-05-09T16:39:18.208Z,97607.37
2019-05-09T16:41:48.490Z,97605.89
2019-05-09T16:44:18.794Z,97604.89
2019-05-09T16:46:48.892Z,97615.44
2019-05-09T16:49:19.891Z,97616.25
2019-05-09T16:51:49.616Z,97621.23
2019-05-09T16:54:19.632Z,97638.89
2019-05-09T16:56:49.313Z,97633.25
2019-05-09T16:59:18.831Z,97635.22
2019-05-09T17:01:50.229Z,97641.00
2019-05-09T17:04:19.761Z,97644.88
2019-05-09T17:06:49.875Z,97641.78
2019-05-09T17:09:19.763Z,97638.53
2019-05-09T17:11:49.204Z,97644.54
2019-05-09T17:14:19.477Z,97642.59
2019-05-09T17:16:52.665Z,97645.25
2019-05-09T17:19:20.645Z,97663.27
2019-05-09T17:21:54.458Z,97667.05
2019-05-09T17:24:23.970Z,97676.04
2019-05-09T17:26:53.407Z,97657.11
2019-05-09T17:29:22.851Z,97669.91
2019-05-09T17:31:52.572Z,97664.38
2019-05-09T17:34:22.276Z,97670.64
2019-05-09T17:36:51.715Z,97679.66
2019-05-09T17:39:21.152Z,97695.02
2019-05-09T17:41:50.886Z,97687.91
2019-05-09T17:44:20.585Z,97695.35
2019-05-09T17:46:50.275Z,97702.44
2019-05-09T17:49:19.719Z,97706.48
2019-05-09T17:51:49.169Z,97708.88
2019-05-09T17:54:18.621Z,97708.63
2019-05-09T17:56:48.524Z,97715.73
2019-05-09T17:59:18.602Z,97712.19
2019-05-09T18:01:48.429Z,97709.58
2019-05-09T18:04:18.186Z,97713.24
2019-05-09T18:06:48.974Z,97716.10
2019-05-09T18:09:19.061Z,97717.27
2019-05-09T18:11:48.751Z,97723.08
2019-05-09T18:14:18.617Z,97725.60
2019-05-09T18:16:48.115Z,97725.48
2019-05-09T18:19:17.937Z,97735.42
2019-05-09T18:21:51.044Z,97734.92
2019-05-09T18:24:18.789Z,97738.40
2019-05-09T18:26:48.229Z,97744.06
2019-05-09T18:29:18.263Z,97745.73
2019-05-09T18:31:49.540Z,97750.23
2019-05-09T18:34:18.997Z,97757.20
2019-05-09T18:36:48.556Z,97761.69
2019-05-09T18:39:18.645Z,97762.40
2019-05-09T18:41:48.466Z,97774.94
2019-05-09T18:44:18.301Z,97782.86
2019-05-09T18:46:48.198Z,97781.56
2019-05-09T18:49:18.975Z,97784.63
2019-05-09T18:52:02.412Z,97787.00
2019-05-09T18:54:19.934Z,97791.73
2019-05-09T18:56:49.659Z,97797.29
2019-05-09T18:59:19.092Z,97798.81
2019-05-09T19:01:48.849Z,97792.56
2019-05-09T19:04:18.286Z,97811.70
2019-05-09T19:06:47.731Z,97809.69
2019-05-09T19:09:17.481Z,97811.11
2019-05-09T19:11:47.036Z,97813.34
2019-05-09T19:14:18.525Z,97822.69
2019-05-09T19:16:48.024Z,97827.03
2019-05-09T19:19:21.836Z,97834.25
2019-05-09T19:21:53.179Z,97839.11
2019-05-09T19:24:22.993Z,97842.39
2019-05-09T19:26:52.442Z,97841.91
2019-05-09T19:29:22.205Z,97851.63
2019-05-09T19:31:51.669Z,97850.65
2019-05-09T19:34:21.169Z,97860.72
2019-05-09T19:36:51.027Z,97861.02
2019-05-09T19:39:20.466Z,97864.22
2019-05-09T19:41:49.907Z,97873.44
2019-05-09T19:44:19.743Z,97879.59
2019-05-09T19:46:49.472Z,97883.34
2019-05-09T19:49:18.913Z,97892.67
2019-05-09T19:51:49.207Z,97890.91
2019-05-09T19:54:18.884Z,97897.53
2019-05-09T19:56:48.575Z,97900.08
2019-05-09T19:59:18.016Z,97896.34
2019-05-09T20:01:47.813Z,97909.80
2019-05-09T20:04:17.250Z,97903.91
2019-05-09T20:06:46.699Z,97905.52
2019-05-09T20:09:17.776Z,97908.84
2019-05-09T20:11:49.321Z,97912.70
2019-05-09T20:14:20.405Z,97919.88
2019-05-09T20:16:51.741Z,97916.07
2019-05-09T20:19:21.513Z,97919.47
2019-05-09T20:21:51.318Z,97919.08
2019-05-09T20:24:20.874Z,97934.31
2019-05-09T20:26:50.307Z,97925.80
2019-05-09T20:29:19.752Z,97929.77
2019-05-09T20:31:49.555Z,97937.31
2019-05-09T20:34:18.981Z,97938.92
2019-05-09T20:36:48.758Z,97939.19
2019-05-09T20:39:18.377Z,97943.89
2019-05-09T20:41:48.238Z,97943.61
2019-05-09T20:44:18.110Z,97945.23
2019-05-09T20:46:47.736Z,97956.41
2019-05-09T20:49:17.620Z,97947.00
2019-05-09T20:51:47.304Z,97956.36
2019-05-09T20:54:20.852Z,97954.84
2019-05-09T20:56:48.576Z,97959.58
2019-05-09T20:59:18.211Z,97960.52
2019-05-09T21:01:48.102Z,97950.26
2019-05-09T21:04:18.005Z,97970.84
2019-05-09T21:06:48.026Z,97970.23
2019-05-09T21:09:17.650Z,97978.17
2019-05-09T21:11:47.270Z,97984.88
2019-05-09T21:14:17.161Z,97986.59
2019-05-09T21:16:47.063Z,97992.22
2019-05-09T21:19:16.695Z,97997.25
2019-05-09T21:21:46.320Z,97992.89
2019-05-09T21:24:15.955Z,98003.33
2019-05-09T21:26:45.821Z,98001.87
2019-05-09T21:29:15.714Z,98002.65
2019-05-09T21:31:45.338Z,98007.62
2019-05-09T21:34:14.967Z,98008.40
2019-05-09T21:36:44.650Z,98005.78
2019-05-09T21:39:14.361Z,98007.08
2019-05-09T21:41:43.799Z,98015.14
2019-05-09T21:44:13.567Z,98007.20
2019-05-09T21:46:43.002Z,98012.72
2019-05-09T21:49:12.775Z,98016.27
2019-05-09T21:51:42.472Z,98019.50
2019-05-09T21:54:12.194Z,98022.34
2019-05-09T21:56:41.632Z,98024.58
2019-05-09T21:59:11.408Z,98036.46
2019-05-09T22:01:41.841Z,98040.17
2019-05-09T22:04:11.283Z,98039.78
2019-05-09T22:06:40.722Z,98043.22
2019-05-09T22:09:11.156Z,98043.98
2019-05-09T22:11:41.076Z,98052.19
2019-05-09T22:14:10.525Z,98053.94
2019-05-09T22:16:39.959Z,98057.58
2019-05-09T22:19:09.404Z,98047.36
2019-05-09T22:21:38.841Z,98052.74
2019-05-09T22:24:08.285Z,98059.02
2019-05-09T22:26:37.728Z,98064.20
2019-05-09T22:29:07.507Z,98071.06
2019-05-09T22:31:36.934Z,98070.89
2019-05-09T22:34:06.383Z,98074.95
2019-05-09T22:36:35.818Z,98079.97
2019-05-09T22:39:07.910Z,98073.48
2019-05-09T22:41:37.691Z,98080.42
2019-05-09T22:44:07.129Z,98079.02
2019-05-09T22:46:36.633Z,98076.18
2019-05-09T22:49:06.321Z,98084.84
2019-05-09T22:51:35.758Z,98090.69
2019-05-09T22:54:12.618Z,98085.70
2019-05-09T22:56:36.371Z,98083.95
2019-05-09T22:59:06.081Z,98080.31
2019-05-09T23:01:36.176Z,98080.52
2019-05-09T23:04:05.988Z,98087.00
2019-05-09T23:06:35.424Z,98083.13
2019-05-09T23:09:06.951Z,98095.53
2019-05-09T23:11:36.654Z,98091.50
2019-05-09T23:14:06.170Z,98096.39
2019-05-09T23:16:37.246Z,98096.09
2019-05-09T23:19:07.011Z,98098.68
2019-05-09T23:21:36.452Z,98103.69
2019-05-09T23:24:10.414Z,98094.81
2019-05-09T23:26:40.131Z,98097.16
2019-05-09T23:29:09.943Z,98094.66
2019-05-09T23:31:41.019Z,98094.77
2019-05-09T23:34:10.790Z,98092.53
2019-05-09T23:36:40.255Z,98096.92
2019-05-09T23:39:26.661Z,98094.88
2019-05-09T23:41:56.305Z,98101.71
2019-05-09T23:44:25.755Z,98100.06
2019-05-09T23:46:55.528Z,98098.21
2019-05-09T23:49:24.966Z,98106.16
2019-05-09T23:51:54.401Z,98102.00
2019-05-09T23:54:46.935Z,98108.00
2019-05-09T23:57:31.234Z,98113.92
